sensor_id;sensor_type;location;lat;lon;timestamp;temperature;humidity
19261;DHT22;9764;48.114;11.670;2023-02-11T00:01:20;18.80;84.50
19261;DHT22;9764;48.114;11.670;2023-02-11T00:03:49;18.80;84.50
19261;DHT22;9764;48.114;11.670;2023-02-11T00:06:18;18.80;84.50
19261;DHT22;9764;48.114;11.670;2023-02-11T00:08:46;18.80;84.50
19261;DHT22;9764;48.114;11.670;2023-02-11T00:11:17;18.80;84.50
19261;DHT22;9764;48.114;11.670;2023-02-11T00:13:46;18.70;84.60
19261;DHT22;9764;48.114;11.670;2023-02-11T00:16:17;18.80;84.60
19261;DHT22;9764;48.114;11.670;2023-02-11T00:18:46;18.80;84.50
19261;DHT22;9764;48.114;11.670;2023-02-11T00:21:16;18.80;84.40
19261;DHT22;9764;48.114;11.670;2023-02-11T00:23:45;18.80;84.50
19261;DHT22;9764;48.114;11.670;2023-02-11T00:26:16;18.80;84.50
19261;DHT22;9764;48.114;11.670;2023-02-11T00:28:46;18.80;84.50
19261;DHT22;9764;48.114;11.670;2023-02-11T00:31:18;18.70;84.60
19261;DHT22;9764;48.114;11.670;2023-02-11T00:33:47;18.80;84.60
19261;DHT22;9764;48.114;11.670;2023-02-11T00:36:17;18.80;84.50
19261;DHT22;9764;48.114;11.670;2023-02-11T00:38:47;18.80;84.40
19261;DHT22;9764;48.114;11.670;2023-02-11T00:41:16;18.70;84.50
19261;DHT22;9764;48.114;11.670;2023-02-11T00:43:45;18.70;84.60
19261;DHT22;9764;48.114;11.670;2023-02-11T00:46:14;18.70;84.50
19261;DHT22;9764;48.114;11.670;2023-02-11T00:48:44;18.70;84.50
19261;DHT22;9764;48.114;11.670;2023-02-11T00:51:12;18.70;84.50
19261;DHT22;9764;48.114;11.670;2023-02-11T00:53:40;18.80;84.40
19261;DHT22;9764;48.114;11.670;2023-02-11T00:56:09;18.80;84.30
19261;DHT22;9764;48.114;11.670;2023-02-11T00:58:37;18.80;84.40
19261;DHT22;9764;48.114;11.670;2023-02-11T01:01:06;18.80;84.40
19261;DHT22;9764;48.114;11.670;2023-02-11T01:03:34;18.70;84.40
19261;DHT22;9764;48.114;11.670;2023-02-11T01:06:05;18.70;84.40
19261;DHT22;9764;48.114;11.670;2023-02-11T01:08:35;18.70;84.50
19261;DHT22;9764;48.114;11.670;2023-02-11T01:11:06;18.70;84.60
19261;DHT22;9764;48.114;11.670;2023-02-11T01:13:35;18.70;84.50
19261;DHT22;9764;48.114;11.670;2023-02-11T01:16:06;18.70;85.30
19261;DHT22;9764;48.114;11.670;2023-02-11T01:18:35;18.70;84.40
19261;DHT22;9764;48.114;11.670;2023-02-11T01:21:05;18.70;84.50
19261;DHT22;9764;48.114;11.670;2023-02-11T01:23:33;18.70;84.40
19261;DHT22;9764;48.114;11.670;2023-02-11T01:26:02;18.70;84.50
19261;DHT22;9764;48.114;11.670;2023-02-11T01:28:30;18.70;84.60
19261;DHT22;9764;48.114;11.670;2023-02-11T01:30:59;18.60;84.60
19261;DHT22;9764;48.114;11.670;2023-02-11T01:33:28;18.60;84.70
19261;DHT22;9764;48.114;11.670;2023-02-11T01:36:00;18.70;84.60
19261;DHT22;9764;48.114;11.670;2023-02-11T01:38:31;18.60;85.40
19261;DHT22;9764;48.114;11.670;2023-02-11T01:41:03;18.70;84.40
19261;DHT22;9764;48.114;11.670;2023-02-11T01:43:33;18.60;84.60
19261;DHT22;9764;48.114;11.670;2023-02-11T01:46:27;18.60;84.50
19261;DHT22;9764;48.114;11.670;2023-02-11T01:48:59;18.60;84.50
19261;DHT22;9764;48.114;11.670;2023-02-11T01:51:32;18.60;84.60
19261;DHT22;9764;48.114;11.670;2023-02-11T01:54:05;18.60;84.60
19261;DHT22;9764;48.114;11.670;2023-02-11T01:56:52;18.60;84.60
19261;DHT22;9764;48.114;11.670;2023-02-11T01:59:46;18.60;85.30
19261;DHT22;9764;48.114;11.670;2023-02-11T02:02:22;18.60;84.40
19261;DHT22;9764;48.114;11.670;2023-02-11T02:04:55;18.60;84.50
19261;DHT22;9764;48.114;11.670;2023-02-11T02:07:31;18.60;84.50
19261;DHT22;9764;48.114;11.670;2023-02-11T02:10:04;18.60;84.60
19261;DHT22;9764;48.114;11.670;2023-02-11T02:12:35;18.60;84.60
19261;DHT22;9764;48.114;11.670;2023-02-11T02:15:18;18.60;84.70
19261;DHT22;9764;48.114;11.670;2023-02-11T02:17:56;18.60;84.60
19261;DHT22;9764;48.114;11.670;2023-02-11T02:23:32;18.50;84.60
19261;DHT22;9764;48.114;11.670;2023-02-11T02:26:35;18.60;84.40
19261;DHT22;9764;48.114;11.670;2023-02-11T02:29:44;18.60;84.60
19261;DHT22;9764;48.114;11.670;2023-02-11T02:32:25;18.60;84.50
19261;DHT22;9764;48.114;11.670;2023-02-11T02:35:03;18.60;84.40
19261;DHT22;9764;48.114;11.670;2023-02-11T02:37:40;18.60;84.40
19261;DHT22;9764;48.114;11.670;2023-02-11T02:40:13;18.60;84.40
19261;DHT22;9764;48.114;11.670;2023-02-11T02:42:43;18.60;84.30
19261;DHT22;9764;48.114;11.670;2023-02-11T02:45:13;18.60;84.30
19261;DHT22;9764;48.114;11.670;2023-02-11T02:47:42;18.60;84.40
19261;DHT22;9764;48.114;11.670;2023-02-11T02:50:13;18.70;84.30
19261;DHT22;9764;48.114;11.670;2023-02-11T02:52:50;18.70;84.20
19261;DHT22;9764;48.114;11.670;2023-02-11T02:55:43;18.60;83.70
19261;DHT22;9764;48.114;11.670;2023-02-11T03:01:27;18.50;84.50
19261;DHT22;9764;48.114;11.670;2023-02-11T03:04:05;18.50;84.60
19261;DHT22;9764;48.114;11.670;2023-02-11T03:06:43;18.50;84.60
19261;DHT22;9764;48.114;11.670;2023-02-11T03:09:17;18.60;84.50
19261;DHT22;9764;48.114;11.670;2023-02-11T03:11:48;18.60;84.30
19261;DHT22;9764;48.114;11.670;2023-02-11T03:14:17;18.50;84.40
19261;DHT22;9764;48.114;11.670;2023-02-11T03:16:48;18.60;84.30
19261;DHT22;9764;48.114;11.670;2023-02-11T03:19:21;18.50;84.50
19261;DHT22;9764;48.114;11.670;2023-02-11T03:21:50;18.50;84.50
19261;DHT22;9764;48.114;11.670;2023-02-11T03:24:25;18.60;84.40
19261;DHT22;9764;48.114;11.670;2023-02-11T03:26:57;18.50;84.40
19261;DHT22;9764;48.114;11.670;2023-02-11T03:29:33;18.50;84.50
19261;DHT22;9764;48.114;11.670;2023-02-11T03:32:07;18.50;84.40
19261;DHT22;9764;48.114;11.670;2023-02-11T03:34:44;18.50;84.50
19261;DHT22;9764;48.114;11.670;2023-02-11T03:37:16;18.50;84.50
19261;DHT22;9764;48.114;11.670;2023-02-11T03:39:51;18.50;84.40
19261;DHT22;9764;48.114;11.670;2023-02-11T03:42:23;18.60;84.30
19261;DHT22;9764;48.114;11.670;2023-02-11T03:44:58;18.60;84.20
19261;DHT22;9764;48.114;11.670;2023-02-11T03:47:31;18.60;84.20
19261;DHT22;9764;48.114;11.670;2023-02-11T03:50:02;18.60;84.10
19261;DHT22;9764;48.114;11.670;2023-02-11T03:52:31;18.60;84.20
19261;DHT22;9764;48.114;11.670;2023-02-11T03:55:02;18.60;84.10
19261;DHT22;9764;48.114;11.670;2023-02-11T03:57:33;18.60;84.30
19261;DHT22;9764;48.114;11.670;2023-02-11T04:00:03;18.50;84.30
19261;DHT22;9764;48.114;11.670;2023-02-11T04:02:38;18.50;84.30
19261;DHT22;9764;48.114;11.670;2023-02-11T04:05:13;18.50;84.30
19261;DHT22;9764;48.114;11.670;2023-02-11T04:07:42;18.50;84.30
19261;DHT22;9764;48.114;11.670;2023-02-11T04:10:11;18.50;84.30
19261;DHT22;9764;48.114;11.670;2023-02-11T04:12:39;18.60;84.30
19261;DHT22;9764;48.114;11.670;2023-02-11T04:15:09;18.50;84.20
19261;DHT22;9764;48.114;11.670;2023-02-11T04:17:37;18.50;84.30
19261;DHT22;9764;48.114;11.670;2023-02-11T04:20:37;18.50;84.30
19261;DHT22;9764;48.114;11.670;2023-02-11T04:23:07;18.50;84.40
19261;DHT22;9764;48.114;11.670;2023-02-11T04:25:41;18.50;84.60
19261;DHT22;9764;48.114;11.670;2023-02-11T04:28:09;18.50;84.40
19261;DHT22;9764;48.114;11.670;2023-02-11T04:30:38;18.50;84.40
19261;DHT22;9764;48.114;11.670;2023-02-11T04:33:06;18.60;84.30
19261;DHT22;9764;48.114;11.670;2023-02-11T04:35:35;18.60;84.00
19261;DHT22;9764;48.114;11.670;2023-02-11T04:38:05;18.70;84.00
19261;DHT22;9764;48.114;11.670;2023-02-11T04:40:33;18.70;83.90
19261;DHT22;9764;48.114;11.670;2023-02-11T04:43:01;18.70;84.10
19261;DHT22;9764;48.114;11.670;2023-02-11T04:45:30;18.60;83.90
19261;DHT22;9764;48.114;11.670;2023-02-11T04:48:00;18.60;83.90
19261;DHT22;9764;48.114;11.670;2023-02-11T04:50:28;18.60;84.10
19261;DHT22;9764;48.114;11.670;2023-02-11T04:52:57;18.60;84.80
19261;DHT22;9764;48.114;11.670;2023-02-11T04:55:27;18.60;84.20
19261;DHT22;9764;48.114;11.670;2023-02-11T04:57:55;18.60;84.10
19261;DHT22;9764;48.114;11.670;2023-02-11T05:00:23;18.50;84.20
19261;DHT22;9764;48.114;11.670;2023-02-11T05:02:52;18.50;84.30
19261;DHT22;9764;48.114;11.670;2023-02-11T05:05:20;18.50;84.40
19261;DHT22;9764;48.114;11.670;2023-02-11T05:07:48;18.60;84.30
19261;DHT22;9764;48.114;11.670;2023-02-11T05:10:17;18.60;84.40
19261;DHT22;9764;48.114;11.670;2023-02-11T05:12:48;18.60;84.40
19261;DHT22;9764;48.114;11.670;2023-02-11T05:15:18;18.60;84.30
19261;DHT22;9764;48.114;11.670;2023-02-11T05:17:46;18.60;84.30
19261;DHT22;9764;48.114;11.670;2023-02-11T05:20:14;18.60;84.20
19261;DHT22;9764;48.114;11.670;2023-02-11T05:22:43;18.70;84.20
19261;DHT22;9764;48.114;11.670;2023-02-11T05:25:11;18.70;84.00
19261;DHT22;9764;48.114;11.670;2023-02-11T05:27:39;18.80;83.90
19261;DHT22;9764;48.114;11.670;2023-02-11T05:30:10;18.80;83.90
19261;DHT22;9764;48.114;11.670;2023-02-11T05:32:39;18.70;84.10
19261;DHT22;9764;48.114;11.670;2023-02-11T05:35:07;18.70;84.10
19261;DHT22;9764;48.114;11.670;2023-02-11T05:37:35;18.70;84.10
19261;DHT22;9764;48.114;11.670;2023-02-11T05:40:05;18.70;84.10
19261;DHT22;9764;48.114;11.670;2023-02-11T05:42:33;18.70;84.10
19261;DHT22;9764;48.114;11.670;2023-02-11T05:45:02;18.80;83.90
19261;DHT22;9764;48.114;11.670;2023-02-11T05:47:32;18.80;84.00
19261;DHT22;9764;48.114;11.670;2023-02-11T05:50:00;18.80;83.90
19261;DHT22;9764;48.114;11.670;2023-02-11T05:52:29;18.80;84.00
19261;DHT22;9764;48.114;11.670;2023-02-11T05:54:57;18.90;83.60
19261;DHT22;9764;48.114;11.670;2023-02-11T05:57:28;18.90;83.40
19261;DHT22;9764;48.114;11.670;2023-02-11T05:59:56;18.90;83.60
19261;DHT22;9764;48.114;11.670;2023-02-11T06:02:25;18.90;83.60
19261;DHT22;9764;48.114;11.670;2023-02-11T06:04:54;18.90;83.60
19261;DHT22;9764;48.114;11.670;2023-02-11T06:07:23;18.90;83.70
19261;DHT22;9764;48.114;11.670;2023-02-11T06:09:51;18.80;83.80
19261;DHT22;9764;48.114;11.670;2023-02-11T06:12:19;18.80;83.60
19261;DHT22;9764;48.114;11.670;2023-02-11T06:14:48;18.90;83.70
19261;DHT22;9764;48.114;11.670;2023-02-11T06:17:16;18.90;83.60
19261;DHT22;9764;48.114;11.670;2023-02-11T06:19:45;18.90;83.70
19261;DHT22;9764;48.114;11.670;2023-02-11T06:22:16;18.80;83.70
19261;DHT22;9764;48.114;11.670;2023-02-11T06:24:45;18.80;84.00
19261;DHT22;9764;48.114;11.670;2023-02-11T06:27:27;18.80;83.90
19261;DHT22;9764;48.114;11.670;2023-02-11T06:29:56;18.80;84.00
19261;DHT22;9764;48.114;11.670;2023-02-11T06:32:25;18.80;83.80
19261;DHT22;9764;48.114;11.670;2023-02-11T06:35:12;18.80;83.70
19261;DHT22;9764;48.114;11.670;2023-02-11T06:37:42;18.90;83.70
19261;DHT22;9764;48.114;11.670;2023-02-11T06:40:11;18.90;83.80
19261;DHT22;9764;48.114;11.670;2023-02-11T06:42:39;18.90;83.50
19261;DHT22;9764;48.114;11.670;2023-02-11T06:45:09;18.90;83.60
19261;DHT22;9764;48.114;11.670;2023-02-11T06:47:39;18.80;84.00
19261;DHT22;9764;48.114;11.670;2023-02-11T06:50:11;18.80;83.90
19261;DHT22;9764;48.114;11.670;2023-02-11T06:52:40;18.80;83.90
19261;DHT22;9764;48.114;11.670;2023-02-11T06:55:12;18.90;83.90
19261;DHT22;9764;48.114;11.670;2023-02-11T06:57:40;18.90;83.70
19261;DHT22;9764;48.114;11.670;2023-02-11T07:00:10;18.90;83.70
19261;DHT22;9764;48.114;11.670;2023-02-11T07:02:38;19.00;83.60
19261;DHT22;9764;48.114;11.670;2023-02-11T07:05:08;18.90;83.60
19261;DHT22;9764;48.114;11.670;2023-02-11T07:07:36;19.00;83.60
19261;DHT22;9764;48.114;11.670;2023-02-11T07:10:05;19.00;84.50
19261;DHT22;9764;48.114;11.670;2023-02-11T07:12:36;18.90;83.80
19261;DHT22;9764;48.114;11.670;2023-02-11T07:15:05;19.00;83.50
19261;DHT22;9764;48.114;11.670;2023-02-11T07:17:33;19.00;83.50
19261;DHT22;9764;48.114;11.670;2023-02-11T07:20:04;19.00;83.60
19261;DHT22;9764;48.114;11.670;2023-02-11T07:22:33;19.00;83.70
19261;DHT22;9764;48.114;11.670;2023-02-11T07:25:02;19.00;83.70
19261;DHT22;9764;48.114;11.670;2023-02-11T07:27:30;18.90;83.80
19261;DHT22;9764;48.114;11.670;2023-02-11T07:30:00;19.00;83.80
19261;DHT22;9764;48.114;11.670;2023-02-11T07:32:30;19.00;84.50
19261;DHT22;9764;48.114;11.670;2023-02-11T07:34:59;19.10;83.70
19261;DHT22;9764;48.114;11.670;2023-02-11T07:37:27;19.10;83.50
19261;DHT22;9764;48.114;11.670;2023-02-11T07:39:56;19.10;83.40
19261;DHT22;9764;48.114;11.670;2023-02-11T07:42:24;19.10;83.50
19261;DHT22;9764;48.114;11.670;2023-02-11T07:44:53;19.10;83.60
19261;DHT22;9764;48.114;11.670;2023-02-11T07:47:22;19.20;83.40
19261;DHT22;9764;48.114;11.670;2023-02-11T07:49:51;19.10;83.60
19261;DHT22;9764;48.114;11.670;2023-02-11T07:52:22;19.10;83.60
19261;DHT22;9764;48.114;11.670;2023-02-11T07:54:50;19.10;83.50
19261;DHT22;9764;48.114;11.670;2023-02-11T07:57:19;19.10;83.70
19261;DHT22;9764;48.114;11.670;2023-02-11T07:59:47;19.10;83.70
19261;DHT22;9764;48.114;11.670;2023-02-11T08:02:15;18.90;84.20
19261;DHT22;9764;48.114;11.670;2023-02-11T08:04:46;18.70;84.60
19261;DHT22;9764;48.114;11.670;2023-02-11T08:07:17;18.60;85.60
19261;DHT22;9764;48.114;11.670;2023-02-11T08:09:45;18.60;84.90
19261;DHT22;9764;48.114;11.670;2023-02-11T08:15:57;18.70;84.90
19261;DHT22;9764;48.114;11.670;2023-02-11T08:18:25;18.70;84.80
19261;DHT22;9764;48.114;11.670;2023-02-11T08:20:56;18.80;84.80
19261;DHT22;9764;48.114;11.670;2023-02-11T08:23:25;18.70;84.80
19261;DHT22;9764;48.114;11.670;2023-02-11T08:25:53;18.70;84.80
19261;DHT22;9764;48.114;11.670;2023-02-11T08:28:22;18.70;84.90
19261;DHT22;9764;48.114;11.670;2023-02-11T08:30:50;18.80;84.90
19261;DHT22;9764;48.114;11.670;2023-02-11T08:33:19;18.80;84.80
19261;DHT22;9764;48.114;11.670;2023-02-11T08:35:48;18.80;84.80
19261;DHT22;9764;48.114;11.670;2023-02-11T08:38:17;18.80;84.80
19261;DHT22;9764;48.114;11.670;2023-02-11T08:40:46;18.80;84.80
19261;DHT22;9764;48.114;11.670;2023-02-11T08:43:15;18.80;84.90
19261;DHT22;9764;48.114;11.670;2023-02-11T08:45:45;18.70;84.90
19261;DHT22;9764;48.114;11.670;2023-02-11T08:48:13;18.80;84.90
19261;DHT22;9764;48.114;11.670;2023-02-11T08:50:41;18.80;84.90
19261;DHT22;9764;48.114;11.670;2023-02-11T08:53:10;18.80;84.90
19261;DHT22;9764;48.114;11.670;2023-02-11T08:55:39;18.80;85.00
19261;DHT22;9764;48.114;11.670;2023-02-11T08:58:08;18.80;85.60
19261;DHT22;9764;48.114;11.670;2023-02-11T09:00:36;18.80;85.60
19261;DHT22;9764;48.114;11.670;2023-02-11T09:03:05;18.80;84.80
19261;DHT22;9764;48.114;11.670;2023-02-11T09:05:33;18.80;85.00
19261;DHT22;9764;48.114;11.670;2023-02-11T09:08:02;18.80;85.10
19261;DHT22;9764;48.114;11.670;2023-02-11T09:10:32;18.80;85.00
19261;DHT22;9764;48.114;11.670;2023-02-11T09:13:02;18.80;85.00
19261;DHT22;9764;48.114;11.670;2023-02-11T09:15:31;18.80;85.00
19261;DHT22;9764;48.114;11.670;2023-02-11T09:17:59;18.80;85.00
19261;DHT22;9764;48.114;11.670;2023-02-11T09:20:28;18.80;85.00
19261;DHT22;9764;48.114;11.670;2023-02-11T09:22:57;18.80;85.10
19261;DHT22;9764;48.114;11.670;2023-02-11T09:25:26;18.80;85.00
19261;DHT22;9764;48.114;11.670;2023-02-11T09:27:54;18.80;85.10
19261;DHT22;9764;48.114;11.670;2023-02-11T09:30:24;18.80;85.10
19261;DHT22;9764;48.114;11.670;2023-02-11T09:32:52;18.80;85.00
19261;DHT22;9764;48.114;11.670;2023-02-11T09:35:21;18.80;85.00
19261;DHT22;9764;48.114;11.670;2023-02-11T09:37:49;18.80;85.00
19261;DHT22;9764;48.114;11.670;2023-02-11T09:40:18;18.90;85.10
19261;DHT22;9764;48.114;11.670;2023-02-11T09:42:50;18.90;85.10
19261;DHT22;9764;48.114;11.670;2023-02-11T09:45:28;18.90;85.10
19261;DHT22;9764;48.114;11.670;2023-02-11T09:47:59;18.90;85.10
19261;DHT22;9764;48.114;11.670;2023-02-11T09:50:34;18.90;85.00
19261;DHT22;9764;48.114;11.670;2023-02-11T09:53:05;18.90;85.00
19261;DHT22;9764;48.114;11.670;2023-02-11T09:55:39;18.90;85.00
19261;DHT22;9764;48.114;11.670;2023-02-11T09:58:12;18.90;84.90
19261;DHT22;9764;48.114;11.670;2023-02-11T10:00:47;19.00;85.00
19261;DHT22;9764;48.114;11.670;2023-02-11T10:03:38;19.00;84.90
19261;DHT22;9764;48.114;11.670;2023-02-11T10:06:26;19.00;85.00
19261;DHT22;9764;48.114;11.670;2023-02-11T10:09:03;18.90;85.00
19261;DHT22;9764;48.114;11.670;2023-02-11T10:11:40;19.00;85.00
19261;DHT22;9764;48.114;11.670;2023-02-11T10:14:27;19.00;85.00
19261;DHT22;9764;48.114;11.670;2023-02-11T10:17:08;19.00;85.00
19261;DHT22;9764;48.114;11.670;2023-02-11T10:19:50;19.00;84.90
19261;DHT22;9764;48.114;11.670;2023-02-11T10:22:26;19.10;84.80
19261;DHT22;9764;48.114;11.670;2023-02-11T10:24:57;19.10;84.90
19261;DHT22;9764;48.114;11.670;2023-02-11T10:27:29;19.10;85.70
19261;DHT22;9764;48.114;11.670;2023-02-11T10:30:00;19.10;85.00
19261;DHT22;9764;48.114;11.670;2023-02-11T10:32:40;19.10;85.20
19261;DHT22;9764;48.114;11.670;2023-02-11T10:35:13;19.10;84.70
19261;DHT22;9764;48.114;11.670;2023-02-11T10:37:44;19.20;84.90
19261;DHT22;9764;48.114;11.670;2023-02-11T10:40:13;19.20;84.80
19261;DHT22;9764;48.114;11.670;2023-02-11T10:42:47;19.20;84.80
19261;DHT22;9764;48.114;11.670;2023-02-11T10:45:21;19.20;84.80
19261;DHT22;9764;48.114;11.670;2023-02-11T10:47:52;19.20;84.90
19261;DHT22;9764;48.114;11.670;2023-02-11T10:50:23;19.20;84.70
19261;DHT22;9764;48.114;11.670;2023-02-11T10:52:53;19.20;84.80
19261;DHT22;9764;48.114;11.670;2023-02-11T10:55:38;19.20;84.90
19261;DHT22;9764;48.114;11.670;2023-02-11T10:58:23;19.20;84.90
19261;DHT22;9764;48.114;11.670;2023-02-11T11:00:54;19.20;85.00
19261;DHT22;9764;48.114;11.670;2023-02-11T11:03:26;19.20;85.00
19261;DHT22;9764;48.114;11.670;2023-02-11T11:05:59;19.20;84.90
19261;DHT22;9764;48.114;11.670;2023-02-11T11:08:39;19.10;85.10
19261;DHT22;9764;48.114;11.670;2023-02-11T11:11:11;19.20;85.20
19261;DHT22;9764;48.114;11.670;2023-02-11T11:13:41;19.20;85.20
19261;DHT22;9764;48.114;11.670;2023-02-11T11:16:24;19.20;87.80
19261;DHT22;9764;48.114;11.670;2023-02-11T11:19:15;19.20;87.90
19261;DHT22;9764;48.114;11.670;2023-02-11T11:21:49;19.20;87.90
19261;DHT22;9764;48.114;11.670;2023-02-11T11:24:21;19.20;85.40
19261;DHT22;9764;48.114;11.670;2023-02-11T11:26:54;19.20;85.00
19261;DHT22;9764;48.114;11.670;2023-02-11T11:29:28;19.20;85.00
19261;DHT22;9764;48.114;11.670;2023-02-11T11:32:01;19.20;85.10
19261;DHT22;9764;48.114;11.670;2023-02-11T11:34:34;19.20;85.20
19261;DHT22;9764;48.114;11.670;2023-02-11T11:37:10;19.20;85.20
19261;DHT22;9764;48.114;11.670;2023-02-11T11:39:41;19.20;85.20
19261;DHT22;9764;48.114;11.670;2023-02-11T11:42:25;19.20;85.20
19261;DHT22;9764;48.114;11.670;2023-02-11T11:44:58;19.20;85.10
19261;DHT22;9764;48.114;11.670;2023-02-11T11:47:38;19.20;85.30
19261;DHT22;9764;48.114;11.670;2023-02-11T11:50:22;19.20;85.30
19261;DHT22;9764;48.114;11.670;2023-02-11T11:52:57;19.20;85.30
19261;DHT22;9764;48.114;11.670;2023-02-11T11:55:32;19.20;85.20
19261;DHT22;9764;48.114;11.670;2023-02-11T11:58:03;19.20;85.20
19261;DHT22;9764;48.114;11.670;2023-02-11T12:00:36;19.20;85.30
19261;DHT22;9764;48.114;11.670;2023-02-11T12:06:31;19.20;85.20
19261;DHT22;9764;48.114;11.670;2023-02-11T12:09:11;19.20;85.30
19261;DHT22;9764;48.114;11.670;2023-02-11T12:11:59;19.30;86.10
19261;DHT22;9764;48.114;11.670;2023-02-11T12:14:35;19.30;85.20
19261;DHT22;9764;48.114;11.670;2023-02-11T12:17:13;19.30;85.20
19261;DHT22;9764;48.114;11.670;2023-02-11T12:20:28;19.30;85.20
19261;DHT22;9764;48.114;11.670;2023-02-11T12:23:11;19.30;85.40
19261;DHT22;9764;48.114;11.670;2023-02-11T12:25:50;19.40;85.10
19261;DHT22;9764;48.114;11.670;2023-02-11T12:28:32;19.40;86.00
19261;DHT22;9764;48.114;11.670;2023-02-11T12:31:14;19.40;85.50
19261;DHT22;9764;48.114;11.670;2023-02-11T12:34:03;19.40;85.50
19261;DHT22;9764;48.114;11.670;2023-02-11T12:36:53;19.40;85.30
19261;DHT22;9764;48.114;11.670;2023-02-11T12:39:33;19.40;85.30
19261;DHT22;9764;48.114;11.670;2023-02-11T12:42:21;19.40;85.20
19261;DHT22;9764;48.114;11.670;2023-02-11T12:45:21;19.40;85.30
19261;DHT22;9764;48.114;11.670;2023-02-11T12:48:11;19.40;85.50
19261;DHT22;9764;48.114;11.670;2023-02-11T12:50:47;19.40;85.30
19261;DHT22;9764;48.114;11.670;2023-02-11T12:53:32;19.40;85.40
19261;DHT22;9764;48.114;11.670;2023-02-11T12:56:08;19.40;85.70
19261;DHT22;9764;48.114;11.670;2023-02-11T12:58:40;19.40;86.40
19261;DHT22;9764;48.114;11.670;2023-02-11T13:01:17;19.40;86.10
19261;DHT22;9764;48.114;11.670;2023-02-11T13:03:49;19.50;90.00
19261;DHT22;9764;48.114;11.670;2023-02-11T13:06:21;19.60;90.40
19261;DHT22;9764;48.114;11.670;2023-02-11T13:08:54;19.50;90.30
19261;DHT22;9764;48.114;11.670;2023-02-11T13:11:28;19.60;90.20
19261;DHT22;9764;48.114;11.670;2023-02-11T13:14:01;19.60;90.50
19261;DHT22;9764;48.114;11.670;2023-02-11T13:16:34;19.60;90.60
19261;DHT22;9764;48.114;11.670;2023-02-11T13:19:13;19.50;89.10
19261;DHT22;9764;48.114;11.670;2023-02-11T13:21:52;19.40;86.80
19261;DHT22;9764;48.114;11.670;2023-02-11T13:24:28;19.40;86.80
19261;DHT22;9764;48.114;11.670;2023-02-11T13:27:08;19.40;86.90
19261;DHT22;9764;48.114;11.670;2023-02-11T13:29:50;19.40;86.70
19261;DHT22;9764;48.114;11.670;2023-02-11T13:33:01;19.40;86.40
19261;DHT22;9764;48.114;11.670;2023-02-11T13:35:31;19.30;86.40
19261;DHT22;9764;48.114;11.670;2023-02-11T13:38:01;19.30;86.30
19261;DHT22;9764;48.114;11.670;2023-02-11T13:40:33;19.30;86.30
19261;DHT22;9764;48.114;11.670;2023-02-11T13:43:04;19.30;86.60
19261;DHT22;9764;48.114;11.670;2023-02-11T13:45:39;19.30;86.90
19261;DHT22;9764;48.114;11.670;2023-02-11T13:48:16;19.30;87.00
19261;DHT22;9764;48.114;11.670;2023-02-11T13:50:49;19.30;87.10
19261;DHT22;9764;48.114;11.670;2023-02-11T13:53:19;19.30;86.70
19261;DHT22;9764;48.114;11.670;2023-02-11T13:55:50;19.40;86.80
19261;DHT22;9764;48.114;11.670;2023-02-11T13:58:33;19.50;87.90
19261;DHT22;9764;48.114;11.670;2023-02-11T14:01:03;19.50;87.20
19261;DHT22;9764;48.114;11.670;2023-02-11T14:03:33;19.50;87.10
19261;DHT22;9764;48.114;11.670;2023-02-11T14:06:27;19.50;87.80
19261;DHT22;9764;48.114;11.670;2023-02-11T14:09:37;19.40;87.40
19261;DHT22;9764;48.114;11.670;2023-02-11T14:12:23;19.50;88.40
19261;DHT22;9764;48.114;11.670;2023-02-11T14:15:27;19.50;88.60
19261;DHT22;9764;48.114;11.670;2023-02-11T14:21:10;19.60;90.50
19261;DHT22;9764;48.114;11.670;2023-02-11T14:23:40;19.50;85.60
19261;DHT22;9764;48.114;11.670;2023-02-11T14:26:29;19.60;85.60
19261;DHT22;9764;48.114;11.670;2023-02-11T14:29:08;19.60;85.70
19261;DHT22;9764;48.114;11.670;2023-02-11T14:31:44;19.60;85.60
19261;DHT22;9764;48.114;11.670;2023-02-11T14:34:35;19.60;85.50
19261;DHT22;9764;48.114;11.670;2023-02-11T14:37:16;19.70;85.50
19261;DHT22;9764;48.114;11.670;2023-02-11T14:40:08;19.70;92.90
19261;DHT22;9764;48.114;11.670;2023-02-11T14:42:40;19.70;93.50
19261;DHT22;9764;48.114;11.670;2023-02-11T14:45:20;19.70;96.80
19261;DHT22;9764;48.114;11.670;2023-02-11T14:47:57;19.70;97.10
19261;DHT22;9764;48.114;11.670;2023-02-11T14:50:33;19.70;94.20
19261;DHT22;9764;48.114;11.670;2023-02-11T14:53:04;19.70;93.20
19261;DHT22;9764;48.114;11.670;2023-02-11T14:55:34;19.70;93.20
19261;DHT22;9764;48.114;11.670;2023-02-11T14:58:13;19.60;93.30
19261;DHT22;9764;48.114;11.670;2023-02-11T15:01:00;19.60;93.20
19261;DHT22;9764;48.114;11.670;2023-02-11T15:03:33;19.60;92.90
19261;DHT22;9764;48.114;11.670;2023-02-11T15:06:05;19.60;93.40
19261;DHT22;9764;48.114;11.670;2023-02-11T15:08:36;19.60;93.90
19261;DHT22;9764;48.114;11.670;2023-02-11T15:11:11;19.60;92.40
19261;DHT22;9764;48.114;11.670;2023-02-11T15:13:41;19.60;90.00
19261;DHT22;9764;48.114;11.670;2023-02-11T15:16:15;19.60;90.20
19261;DHT22;9764;48.114;11.670;2023-02-11T15:18:49;19.60;90.50
19261;DHT22;9764;48.114;11.670;2023-02-11T15:21:20;19.60;90.90
19261;DHT22;9764;48.114;11.670;2023-02-11T15:23:58;19.60;92.10
19261;DHT22;9764;48.114;11.670;2023-02-11T15:26:27;19.50;91.90
19261;DHT22;9764;48.114;11.670;2023-02-11T15:28:56;19.50;90.70
19261;DHT22;9764;48.114;11.670;2023-02-11T15:31:25;19.50;90.70
19261;DHT22;9764;48.114;11.670;2023-02-11T15:34:06;19.50;90.70
19261;DHT22;9764;48.114;11.670;2023-02-11T15:36:34;19.50;90.30
19261;DHT22;9764;48.114;11.670;2023-02-11T15:39:18;19.50;90.40
19261;DHT22;9764;48.114;11.670;2023-02-11T15:41:47;19.50;90.50
19261;DHT22;9764;48.114;11.670;2023-02-11T15:44:26;19.50;91.00
19261;DHT22;9764;48.114;11.670;2023-02-11T15:46:55;19.60;91.60
19261;DHT22;9764;48.114;11.670;2023-02-11T15:49:25;19.60;92.60
19261;DHT22;9764;48.114;11.670;2023-02-11T15:51:55;19.70;92.50
19261;DHT22;9764;48.114;11.670;2023-02-11T15:54:25;19.60;92.50
19261;DHT22;9764;48.114;11.670;2023-02-11T15:56:59;19.60;92.90
19261;DHT22;9764;48.114;11.670;2023-02-11T15:59:30;19.60;91.20
19261;DHT22;9764;48.114;11.670;2023-02-11T16:02:06;19.60;90.40
19261;DHT22;9764;48.114;11.670;2023-02-11T16:04:37;19.60;86.90
19261;DHT22;9764;48.114;11.670;2023-02-11T16:07:05;19.60;85.70
19261;DHT22;9764;48.114;11.670;2023-02-11T16:09:35;19.60;85.50
19261;DHT22;9764;48.114;11.670;2023-02-11T16:12:18;19.70;85.40
19261;DHT22;9764;48.114;11.670;2023-02-11T16:14:48;19.70;85.40
19261;DHT22;9764;48.114;11.670;2023-02-11T16:17:22;19.70;85.50
19261;DHT22;9764;48.114;11.670;2023-02-11T16:19:53;19.70;85.40
19261;DHT22;9764;48.114;11.670;2023-02-11T16:22:23;19.70;85.30
19261;DHT22;9764;48.114;11.670;2023-02-11T16:24:55;19.70;85.50